Time;durP1;ratioP1;P1;durP2;ratioP2;P2;SDS_P1;SDS_P2;PMS_P1;PMS_P2;Temp;Humidity;BMP_temperature;BMP_pressure;BME280_temperature;BME280_humidity;BME280_pressure;Samples;Min_cycle;Max_cycle;Signal;HPM_P1;HPM_P2
2023/02/26 00:01:31;;;;;;;7.32;6.10;;;;;;;-1.73;100.00;101621.91;10233035;28;20050;-74
2023/02/26 00:06:30;;;;;;;8.02;7.03;;;;;;;-1.77;100.00;101631.41;10221447;28;20038;-72
2023/02/26 00:11:27;;;;;;;7.28;6.63;;;;;;;-1.73;100.00;101637.97;10230452;28;20051;-71
2023/02/26 00:16:34;;;;;;;9.55;6.75;;;;;;;-1.79;100.00;101644.19;10227948;28;20041;-72
2023/02/26 00:21:33;;;;;;;7.50;6.80;;;;;;;-1.79;100.00;101671.00;10224517;28;20119;-72
2023/02/26 00:26:30;;;;;;;7.30;6.70;;;;;;;-1.71;100.00;101662.72;10233279;28;20079;-72
2023/02/26 00:31:27;;;;;;;9.38;6.97;;;;;;;-1.71;100.00;101678.81;10214123;28;20073;-71
2023/02/26 00:36:33;;;;;;;6.93;6.35;;;;;;;-1.77;100.00;101685.03;10228857;28;20161;-73
2023/02/26 00:41:30;;;;;;;7.70;7.00;;;;;;;-1.82;100.00;101682.97;10220316;28;20095;-72
2023/02/26 00:46:42;;;;;;;10.70;6.72;;;;;;;-1.81;100.00;101695.34;10228550;28;20116;-72
2023/02/26 00:51:52;;;;;;;7.63;6.88;;;;;;;-1.85;100.00;101710.22;10220367;28;20046;-72
2023/02/26 00:56:49;;;;;;;7.68;7.00;;;;;;;-1.82;100.00;101714.31;10224302;28;20042;-72
2023/02/26 01:01:47;;;;;;;9.52;7.38;;;;;;;-1.84;100.00;101719.06;10228828;28;20056;-72
2023/02/26 01:06:49;;;;;;;7.28;6.28;;;;;;;-1.68;100.00;101726.66;10221246;28;20471;-72
2023/02/26 01:11:46;;;;;;;9.15;6.78;;;;;;;-1.42;100.00;101730.25;10219518;28;20052;-73
2023/02/26 01:16:52;;;;;;;13.43;5.80;;;;;;;-1.35;100.00;101736.44;10230425;28;20048;-72
2023/02/26 01:21:58;;;;;;;10.55;6.32;;;;;;;-1.42;100.00;101735.63;10220663;28;20041;-73
2023/02/26 01:26:55;;;;;;;8.13;6.07;;;;;;;-1.39;100.00;101741.41;10224964;28;20057;-72
2023/02/26 01:32:05;;;;;;;6.18;5.60;;;;;;;-1.35;100.00;101747.16;10208189;28;20092;-73
2023/02/26 01:37:25;;;;;;;6.55;5.38;;;;;;;-1.18;100.00;101732.22;10222663;28;20049;-72
2023/02/26 01:42:29;;;;;;;6.70;5.38;;;;;;;-1.21;100.00;101740.69;10215828;28;20045;-72
2023/02/26 01:47:41;;;;;;;7.15;4.93;;;;;;;-1.11;100.00;101738.38;10221026;28;20567;-73
2023/02/26 01:53:14;;;;;;;14.35;5.32;;;;;;;-1.37;100.00;101749.22;10218603;28;20080;-72
2023/02/26 01:58:11;;;;;;;8.30;4.93;;;;;;;-1.43;100.00;101755.47;10221862;28;20050;-73
2023/02/26 02:03:09;;;;;;;6.90;5.13;;;;;;;-1.38;100.00;101761.00;10228052;28;20111;-72
2023/02/26 02:08:06;;;;;;;6.80;5.13;;;;;;;-1.55;100.00;101779.44;10218629;28;20071;-72
2023/02/26 02:13:33;;;;;;;7.97;5.03;;;;;;;-1.75;100.00;101774.13;10229544;28;20135;-72
2023/02/26 02:18:55;;;;;;;7.97;7.22;;;;;;;-1.70;100.00;101787.72;10211885;28;20125;-72
2023/02/26 02:24:10;;;;;;;5.25;4.70;;;;;;;-1.84;100.00;101802.19;10222817;28;20057;-73
2023/02/26 02:29:22;;;;;;;5.88;5.30;;;;;;;-1.87;100.00;101795.38;10210313;28;20416;-72
2023/02/26 02:34:36;;;;;;;6.43;5.70;;;;;;;-1.96;100.00;101805.50;10225281;28;20045;-72
2023/02/26 02:40:01;;;;;;;9.75;5.22;;;;;;;-2.11;100.00;101812.94;10211505;28;20049;-72
2023/02/26 02:45:03;;;;;;;6.75;4.60;;;;;;;-2.24;100.00;101823.66;10213920;28;20071;-72
2023/02/26 02:50:00;;;;;;;;;;;;;;;-2.21;100.00;101833.94;10215511;28;20111;-72
2023/02/26 02:55:22;;;;;;;8.10;4.32;;;;;;;-2.22;100.00;101832.31;10219878;28;19949;-72
2023/02/26 03:00:22;;;;;;;7.68;4.35;;;;;;;-2.19;100.00;101847.97;10213441;28;20052;-71
2023/02/26 03:05:19;;;;;;;5.15;4.65;;;;;;;-2.18;100.00;101849.59;10222041;28;20048;-71
2023/02/26 03:10:16;;;;;;;8.13;4.32;;;;;;;-2.20;100.00;101859.72;10221884;28;20072;-72
2023/02/26 03:15:14;;;;;;;6.03;4.32;;;;;;;-2.29;100.00;101874.34;10219361;28;20483;-71
2023/02/26 03:20:25;;;;;;;8.20;5.35;;;;;;;-2.30;100.00;101864.63;10217598;28;20068;-71
2023/02/26 03:25:52;;;;;;;6.00;4.75;;;;;;;-2.37;100.00;101868.16;10211714;28;20049;-72
2023/02/26 03:31:02;;;;;;;8.05;4.90;;;;;;;-2.39;100.00;101880.91;10225997;28;20050;-71
2023/02/26 03:36:18;;;;;;;7.28;5.05;;;;;;;-2.37;100.00;101889.59;10231998;28;20042;-71
2023/02/26 03:41:24;;;;;;;15.15;5.45;;;;;;;-2.41;100.00;101893.69;10225933;28;20577;-72
2023/02/26 03:46:28;;;;;;;7.38;4.93;;;;;;;-2.49;100.00;101901.06;10223337;28;20042;-72
2023/02/26 03:51:26;;;;;;;5.63;5.03;;;;;;;-2.48;100.00;101908.91;10224954;28;20095;-71
2023/02/26 03:56:38;;;;;;;5.43;4.93;;;;;;;-2.54;100.00;101912.38;10228340;28;20050;-71
2023/02/26 04:01:51;;;;;;;7.47;4.78;;;;;;;-2.53;100.00;101916.72;10219028;28;20091;-73
2023/02/26 04:06:48;;;;;;;9.13;5.50;;;;;;;-2.50;100.00;101927.03;10217364;28;20125;-72
2023/02/26 04:11:47;;;;;;;6.38;4.60;;;;;;;-2.61;100.00;101932.97;10227091;28;20733;-72
2023/02/26 04:16:44;;;;;;;6.45;4.20;;;;;;;-2.62;100.00;101939.38;10223600;28;20066;-72
2023/02/26 04:21:41;;;;;;;6.15;4.43;;;;;;;-2.59;100.00;101944.31;10217683;28;20053;-72
2023/02/26 04:26:37;;;;;;;7.53;4.10;;;;;;;-2.65;100.00;101950.44;10225580;28;20128;-72
2023/02/26 04:31:34;;;;;;;4.80;4.10;;;;;;;-2.72;100.00;101965.66;10231281;28;20084;-72
2023/02/26 04:36:30;;;;;;;7.05;4.10;;;;;;;-2.65;100.00;101958.47;10214602;28;20042;-71
2023/02/26 04:41:26;;;;;;;4.85;3.78;;;;;;;-2.74;100.00;101968.53;10224862;28;20052;-72
2023/02/26 04:46:23;;;;;;;4.28;3.70;;;;;;;-2.77;100.00;101975.09;10216912;28;20069;-71
2023/02/26 04:51:20;;;;;;;5.15;3.92;;;;;;;-2.86;100.00;101976.28;10219193;28;20091;-71
2023/02/26 04:56:17;;;;;;;5.03;3.95;;;;;;;-2.95;100.00;101982.84;10219015;28;20076;-72
2023/02/26 05:01:13;;;;;;;7.40;3.92;;;;;;;-2.88;100.00;101983.69;10221548;28;20144;-72
2023/02/26 05:06:10;;;;;;;4.43;4.03;;;;;;;-2.93;100.00;102002.19;10225116;28;20100;-71
2023/02/26 05:11:07;;;;;;;8.48;4.25;;;;;;;-2.98;100.00;102004.63;10224245;28;20053;-71
2023/02/26 05:16:04;;;;;;;7.45;4.53;;;;;;;-2.97;100.00;102016.97;10227356;28;20529;-71
2023/02/26 05:21:01;;;;;;;7.38;4.47;;;;;;;-2.93;100.00;102028.97;10229812;28;21309;-71
2023/02/26 05:25:58;;;;;;;8.27;4.40;;;;;;;-2.93;100.00;102028.97;10223849;28;20128;-71
2023/02/26 05:30:56;;;;;;;5.82;4.20;;;;;;;-2.93;100.00;102034.31;10230033;28;20059;-71
2023/02/26 05:35:53;;;;;;;4.05;3.65;;;;;;;-3.00;100.00;102044.16;10221967;28;20095;-71
2023/02/26 05:40:49;;;;;;;11.55;4.90;;;;;;;-3.06;100.00;102050.28;10208277;28;20045;-71
2023/02/26 05:45:49;;;;;;;8.55;4.05;;;;;;;-3.12;100.00;102054.56;10223395;28;20066;-72
2023/02/26 05:50:48;;;;;;;6.43;4.32;;;;;;;-3.14;100.00;102058.44;10228894;28;20053;-71
2023/02/26 05:55:44;;;;;;;9.07;5.00;;;;;;;-3.24;100.00;102070.31;10230679;28;20053;-71
2023/02/26 06:00:41;;;;;;;7.50;4.80;;;;;;;-3.24;100.00;102081.00;10226308;28;20514;-71
2023/02/26 06:05:37;;;;;;;11.07;4.88;;;;;;;-3.28;100.00;102087.75;10224922;28;20136;-71
2023/02/26 06:10:34;;;;;;;5.75;4.97;;;;;;;-3.27;100.00;102089.44;10220025;28;20052;-72
2023/02/26 06:15:30;;;;;;;9.27;5.05;;;;;;;-3.27;100.00;102092.09;10216071;28;20490;-71
2023/02/26 06:20:27;;;;;;;12.82;4.90;;;;;;;-3.25;100.00;102100.78;10218433;28;20073;-71
2023/02/26 06:25:23;;;;;;;6.15;4.80;;;;;;;-3.27;100.00;102108.16;10219377;28;20038;-71
2023/02/26 06:30:22;;;;;;;11.18;4.78;;;;;;;-3.29;100.00;102114.72;10214353;28;20099;-71
2023/02/26 06:35:19;;;;;;;5.45;4.75;;;;;;;-3.31;100.00;102132.81;10215675;28;20059;-71
2023/02/26 06:40:15;;;;;;;8.27;4.68;;;;;;;-3.20;100.00;102135.78;10216887;28;20095;-71
2023/02/26 06:45:12;;;;;;;7.53;4.70;;;;;;;-3.18;100.00;102144.47;10218471;28;20099;-71
2023/02/26 06:50:09;;;;;;;6.70;4.55;;;;;;;-3.18;100.00;102149.81;10209901;28;20054;-71
2023/02/26 06:55:06;;;;;;;6.40;4.60;;;;;;;-3.03;100.00;102156.94;10221495;28;20084;-71
2023/02/26 07:00:04;;;;;;;7.80;4.57;;;;;;;-2.81;100.00;102155.91;10223457;28;20049;-70
2023/02/26 07:05:01;;;;;;;7.95;4.68;;;;;;;-2.86;100.00;102160.97;10228768;28;20053;-72
2023/02/26 07:09:57;;;;;;;6.80;4.50;;;;;;;-2.62;100.00;102170.47;10235728;28;20095;-72
2023/02/26 07:14:54;;;;;;;7.60;4.78;;;;;;;-2.47;100.00;102167.69;10218151;28;20060;-72
2023/02/26 07:19:51;;;;;;;6.40;4.63;;;;;;;-2.44;100.00;102183.34;10235344;28;20042;-72
2023/02/26 07:24:48;;;;;;;6.82;4.40;;;;;;;-2.27;100.00;102193.78;10225946;28;20500;-72
2023/02/26 07:29:45;;;;;;;7.43;4.60;;;;;;;-2.20;100.00;102200.03;10229045;28;20053;-72
2023/02/26 07:34:41;;;;;;;6.53;4.95;;;;;;;-2.37;100.00;102194.97;10223788;28;20069;-72
2023/02/26 07:39:38;;;;;;;8.82;4.93;;;;;;;-2.30;100.00;102199.53;10223342;28;20526;-73
2023/02/26 07:44:34;;;;;;;6.22;4.68;;;;;;;-2.40;100.00;102205.22;10226046;28;20049;-72
2023/02/26 07:49:32;;;;;;;6.03;4.55;;;;;;;-2.29;100.00;102201.19;10228988;28;20045;-72
2023/02/26 07:54:29;;;;;;;5.68;5.00;;;;;;;-2.22;100.00;102210.09;10220507;28;20108;-72
2023/02/26 07:59:25;;;;;;;8.15;5.00;;;;;;;-2.19;100.00;102218.56;10229190;28;20451;-72
2023/02/26 08:04:22;;;;;;;7.43;4.80;;;;;;;-2.08;100.00;102229.78;10229572;28;20073;-72
2023/02/26 08:09:19;;;;;;;7.03;5.28;;;;;;;-2.09;100.00;102234.28;10221545;28;20388;-72
2023/02/26 08:14:15;;;;;;;6.25;5.63;;;;;;;-1.95;100.00;102241.41;10220927;28;20049;-72
2023/02/26 08:19:12;;;;;;;11.35;6.43;;;;;;;-1.89;100.00;102238.97;10228427;28;20125;-72
2023/02/26 08:24:11;;;;;;;6.55;5.15;;;;;;;-1.76;100.00;102239.03;10233468;28;20049;-71
2023/02/26 08:29:07;;;;;;;9.18;5.60;;;;;;;-1.51;100.00;102256.28;10216831;28;20495;-72
2023/02/26 08:34:04;;;;;;;9.52;5.10;;;;;;;-1.38;100.00;102268.94;10224106;28;20064;-72
2023/02/26 08:39:00;;;;;;;6.30;5.43;;;;;;;-1.27;100.00;102275.59;10228601;28;20534;-71
2023/02/26 08:44:01;;;;;;;9.23;5.25;;;;;;;-1.13;100.00;102288.03;10225562;28;20065;-72
2023/02/26 08:48:58;;;;;;;6.40;4.72;;;;;;;-0.90;100.00;102297.59;10223061;28;20065;-73
2023/02/26 08:53:55;;;;;;;5.13;4.50;;;;;;;-0.81;100.00;102295.53;10224127;28;20136;-72
2023/02/26 08:58:52;;;;;;;8.27;4.38;;;;;;;-0.65;100.00;102298.69;10232007;28;20073;-72
2023/02/26 09:03:48;;;;;;;5.18;4.30;;;;;;;-0.48;100.00;102295.59;10221969;28;20043;-73
2023/02/26 09:08:44;;;;;;;5.40;4.30;;;;;;;-0.23;100.00;102314.66;10226007;28;20091;-73
2023/02/26 09:13:41;;;;;;;4.85;4.32;;;;;;;0.00;100.00;102316.91;10219791;28;20064;-73
2023/02/26 09:18:38;;;;;;;6.50;4.28;;;;;;;0.28;100.00;102321.22;10222196;28;20401;-73
2023/02/26 09:23:34;;;;;;;5.65;4.32;;;;;;;0.41;100.00;102315.81;10228492;28;20057;-73
2023/02/26 09:28:30;;;;;;;5.57;4.03;;;;;;;0.61;100.00;102324.66;10225056;28;20040;-73
2023/02/26 09:33:27;;;;;;;4.90;3.90;;;;;;;0.78;100.00;102321.50;10220698;28;20408;-72
2023/02/26 09:38:24;;;;;;;4.80;4.28;;;;;;;1.10;100.00;102325.09;10214440;28;20069;-73
2023/02/26 09:43:41;;;;;;;5.10;4.18;;;;;;;1.44;100.00;102321.16;10227714;28;20128;-72
2023/02/26 09:48:39;;;;;;;4.28;3.85;;;;;;;2.06;100.00;102328.56;10227529;28;20065;-73
2023/02/26 09:53:40;;;;;;;6.30;4.20;;;;;;;2.37;100.00;102329.50;10223634;28;20132;-73
2023/02/26 09:58:38;;;;;;;6.97;4.43;;;;;;;2.76;100.00;102327.44;10226726;28;20121;-73
2023/02/26 10:04:05;;;;;;;5.10;4.60;;;;;;;2.64;100.00;102330.88;10220345;28;20045;-72
2023/02/26 10:09:16;;;;;;;4.05;3.63;;;;;;;2.70;100.00;102337.28;10219486;28;20139;-72
2023/02/26 10:14:23;;;;;;;7.22;4.10;;;;;;;2.72;100.00;102341.41;10217014;28;20053;-72
2023/02/26 10:19:26;;;;;;;6.05;4.00;;;;;;;3.52;100.00;102343.03;10216893;28;20076;-72
2023/02/26 10:24:31;;;;;;;5.05;4.13;;;;;;;3.25;100.00;102347.19;10222785;28;20124;-72
2023/02/26 10:29:39;;;;;;;4.53;4.07;;;;;;;4.12;100.00;102344.00;10217791;28;20049;-72
2023/02/26 10:34:42;;;;;;;5.30;4.50;;;;;;;4.63;100.00;102355.97;10214671;28;20048;-72
2023/02/26 10:39:47;;;;;;;6.43;4.90;;;;;;;4.66;100.00;102371.75;10219476;28;20049;-72
2023/02/26 10:44:53;;;;;;;5.50;4.90;;;;;;;3.78;100.00;102362.63;10209782;28;20128;-72
2023/02/26 10:49:53;;;;;;;4.60;4.20;;;;;;;3.39;100.00;102381.13;10223252;28;20124;-72
2023/02/26 10:55:03;;;;;;;5.88;4.57;;;;;;;3.16;100.00;102382.66;10224522;28;20495;-72
2023/02/26 11:00:00;;;;;;;6.10;4.20;;;;;;;3.26;100.00;102387.50;10223180;28;20045;-72
2023/02/26 11:04:57;;;;;;;5.22;4.53;;;;;;;3.66;100.00;102381.53;10219676;28;20049;-72
2023/02/26 11:10:03;;;;;;;5.75;4.15;;;;;;;4.20;100.00;102398.63;10215086;28;20492;-72
2023/02/26 11:15:01;;;;;;;4.82;4.15;;;;;;;3.91;100.00;102400.31;10220257;28;20057;-73
2023/02/26 11:20:14;;;;;;;5.45;4.45;;;;;;;3.66;100.00;102402.38;10227080;28;20077;-73
2023/02/26 11:25:12;;;;;;;;;;;;;;;3.24;100.00;102410.41;10210938;28;20088;-72
2023/02/26 11:30:20;;;;;;;5.93;4.07;;;;;;;3.81;100.00;102421.72;10217856;28;19964;-72
2023/02/26 11:35:21;;;;;;;7.50;4.00;;;;;;;4.22;100.00;102418.16;10218777;28;20050;-73
2023/02/26 11:40:23;;;;;;;6.38;5.10;;;;;;;4.76;100.00;102417.25;10214634;28;20069;-73
2023/02/26 11:45:21;;;;;;;5.05;4.65;;;;;;;4.67;100.00;102408.66;10218936;28;20542;-72
2023/02/26 11:50:22;;;;;;;7.80;4.57;;;;;;;4.20;100.00;102414.03;10220508;28;20041;-72
2023/02/26 11:55:29;;;;;;;5.97;4.47;;;;;;;3.92;100.00;102414.69;10228383;28;20053;-72
2023/02/26 12:00:31;;;;;;;4.97;4.47;;;;;;;4.32;100.00;102420.28;10226200;28;20049;-72
2023/02/26 12:05:27;;;;;;;6.95;5.10;;;;;;;4.38;100.00;102411.22;10224513;28;20048;-71
2023/02/26 12:10:42;;;;;;;5.15;4.60;;;;;;;4.85;100.00;102416.63;10235619;28;20576;-72
2023/02/26 12:15:44;;;;;;;5.05;4.55;;;;;;;5.25;100.00;102405.00;10231826;28;20048;-72
2023/02/26 12:20:53;;;;;;;7.20;4.70;;;;;;;4.42;100.00;102401.56;10226399;28;20049;-73
2023/02/26 12:25:59;;;;;;;5.40;4.90;;;;;;;5.37;100.00;102399.53;10225420;28;20057;-72
2023/02/26 12:31:27;;;;;;;5.22;4.70;;;;;;;5.63;100.00;102400.00;10220666;28;20045;-73
2023/02/26 12:36:31;;;;;;;9.10;5.40;;;;;;;6.83;100.00;102397.88;10209800;28;20103;-73
2023/02/26 12:42:17;;;;;;;5.47;5.03;;;;;;;5.78;100.00;102407.59;10217945;28;20430;-73
2023/02/26 12:47:50;;;;;;;7.28;4.80;;;;;;;5.68;100.00;102403.63;10225073;28;20053;-72
2023/02/26 12:52:52;;;;;;;6.25;5.35;;;;;;;6.58;100.00;102394.81;10196750;28;20483;-72
2023/02/26 12:58:32;;;;;;;5.75;5.15;;;;;;;4.63;100.00;102402.03;10222641;28;20145;-72
2023/02/26 13:03:55;;;;;;;6.18;4.80;;;;;;;4.07;100.00;102398.00;10223668;28;20563;-72
2023/02/26 13:09:10;;;;;;;4.90;4.45;;;;;;;7.37;100.00;102400.72;10225455;28;20049;-72
2023/02/26 13:14:32;;;;;;;7.50;4.70;;;;;;;7.15;100.00;102389.03;10229396;28;20049;-72
2023/02/26 13:19:42;;;;;;;5.25;3.58;;;;;;;6.37;100.00;102391.78;10210533;28;20076;-72
2023/02/26 13:24:43;;;;;;;13.95;5.30;;;;;;;6.21;100.00;102400.75;10227250;28;20136;-72
2023/02/26 13:29:56;;;;;;;7.38;4.47;;;;;;;5.15;100.00;102407.50;10211952;28;20041;-72
2023/02/26 13:34:59;;;;;;;4.95;4.05;;;;;;;4.84;100.00;102409.56;10215090;28;20129;-72
2023/02/26 13:40:16;;;;;;;8.02;4.32;;;;;;;4.41;100.00;102410.75;10215070;28;20072;-73
2023/02/26 13:45:40;;;;;;;4.80;4.40;;;;;;;4.62;100.00;102408.53;10222237;28;20045;-71
2023/02/26 13:50:49;;;;;;;4.72;4.32;;;;;;;4.65;100.00;102405.34;10226817;28;20045;-71
2023/02/26 13:55:47;;;;;;;4.60;4.15;;;;;;;4.47;100.00;102410.88;10228686;28;20080;-71
2023/02/26 14:01:16;;;;;;;9.60;4.57;;;;;;;5.12;100.00;102399.03;10221062;28;20053;-71
2023/02/26 14:07:01;;;;;;;8.45;4.60;;;;;;;5.96;100.00;102404.69;10222264;28;20045;-71
2023/02/26 14:12:02;;;;;;;7.25;4.30;;;;;;;7.45;100.00;102401.34;10204711;28;20046;-72
2023/02/26 14:17:01;;;;;;;5.70;3.90;;;;;;;6.24;100.00;102401.09;10218966;28;20082;-71
2023/02/26 14:22:18;;;;;;;5.38;4.05;;;;;;;6.32;100.00;102397.16;10224293;28;20648;-73
2023/02/26 14:27:14;;;;;;;4.70;4.13;;;;;;;6.59;100.00;102412.75;10216868;28;20045;-71
2023/02/26 14:32:27;;;;;;;4.18;3.50;;;;;;;6.36;100.00;102403.72;10219573;28;20052;-72
2023/02/26 14:37:27;;;;;;;5.38;3.65;;;;;;;5.35;100.00;102408.97;10213344;28;20050;-71
2023/02/26 14:42:35;;;;;;;4.72;3.65;;;;;;;6.18;100.00;102423.00;10218663;28;20149;-71
2023/02/26 14:47:31;;;;;;;5.38;4.20;;;;;;;8.18;100.00;102408.03;10213510;28;20079;-72
2023/02/26 14:52:45;;;;;;;7.30;3.72;;;;;;;7.15;100.00;102408.91;10222959;28;20045;-72
2023/02/26 14:58:07;;;;;;;4.18;3.72;;;;;;;5.62;100.00;102423.63;10217646;28;20041;-71
2023/02/26 15:03:26;;;;;;;7.43;3.83;;;;;;;4.75;100.00;102431.84;10218807;28;20704;-71
2023/02/26 15:08:40;;;;;;;5.20;3.38;;;;;;;4.64;100.00;102426.19;10213480;28;20046;-71
2023/02/26 15:13:51;;;;;;;7.03;4.15;;;;;;;5.06;100.00;102433.34;10214492;28;20075;-72
2023/02/26 15:18:47;;;;;;;12.25;4.30;;;;;;;5.86;100.00;102429.75;10218780;28;20121;-71
2023/02/26 15:23:50;;;;;;;8.55;3.80;;;;;;;4.92;100.00;102431.94;10221532;28;20048;-71
2023/02/26 15:28:48;;;;;;;5.35;3.47;;;;;;;4.82;100.00;102438.78;10230988;28;20033;-72
2023/02/26 15:33:47;;;;;;;4.55;3.70;;;;;;;4.42;100.00;102434.06;10228674;28;20038;-72
2023/02/26 15:38:48;;;;;;;6.95;3.50;;;;;;;5.00;100.00;102434.28;10223811;28;20048;-72
2023/02/26 15:43:50;;;;;;;4.95;3.15;;;;;;;4.66;100.00;102444.09;10223942;28;20041;-72
2023/02/26 15:48:46;;;;;;;4.88;3.30;;;;;;;4.29;100.00;102449.72;10229531;28;20054;-72
2023/02/26 15:53:46;;;;;;;5.47;3.30;;;;;;;4.37;100.00;102452.91;10226345;28;20048;-72
2023/02/26 15:58:56;;;;;;;4.90;3.72;;;;;;;3.69;100.00;102461.41;10230523;28;20107;-72
2023/02/26 16:03:57;;;;;;;6.25;4.10;;;;;;;3.62;100.00;102460.69;10230301;28;20042;-72
2023/02/26 16:08:54;;;;;;;6.10;4.30;;;;;;;3.35;100.00;102472.66;10230999;28;20477;-72
2023/02/26 16:13:52;;;;;;;6.05;4.65;;;;;;;3.26;100.00;102475.91;10219064;28;20169;-71
2023/02/26 16:18:50;;;;;;;7.65;4.40;;;;;;;3.20;100.00;102479.50;10215041;28;20041;-71
2023/02/26 16:23:52;;;;;;;7.40;4.50;;;;;;;3.00;100.00;102480.56;10222798;28;20053;-72
2023/02/26 16:28:56;;;;;;;7.20;5.35;;;;;;;2.95;100.00;102483.09;10217763;28;20054;-72
2023/02/26 16:33:57;;;;;;;6.22;5.15;;;;;;;2.76;100.00;102489.50;10225601;28;20056;-72
2023/02/26 16:39:14;;;;;;;9.30;5.70;;;;;;;2.64;100.00;102498.31;10232252;28;20677;-72
2023/02/26 16:44:29;;;;;;;7.10;4.90;;;;;;;2.65;100.00;102500.00;10227809;28;20049;-72
2023/02/26 16:49:31;;;;;;;8.18;5.45;;;;;;;2.67;100.00;102508.72;10220189;28;20053;-72
2023/02/26 16:54:33;;;;;;;8.13;5.60;;;;;;;2.48;100.00;102515.06;10222188;28;20061;-72
2023/02/26 16:59:37;;;;;;;;;;;;;;;2.48;100.00;102531.28;10216670;28;20037;-72
2023/02/26 17:04:34;;;;;;;;;;;;;;;2.33;100.00;102536.19;10221117;28;20410;-72
2023/02/26 17:09:37;;;;;;;6.13;5.57;;;;;;;2.18;100.00;102537.31;10228129;28;19925;-72
2023/02/26 17:14:40;;;;;;;8.60;5.10;;;;;;;2.00;100.00;102546.13;10228340;28;20049;-72
2023/02/26 17:19:37;;;;;;;10.70;5.50;;;;;;;1.99;100.00;102549.03;10218157;28;20038;-71
2023/02/26 17:24:39;;;;;;;9.60;6.25;;;;;;;1.89;100.00;102555.72;10226365;28;20060;-72
2023/02/26 17:29:40;;;;;;;6.67;5.00;;;;;;;1.92;100.00;102559.84;10218841;28;20128;-72
2023/02/26 17:34:37;;;;;;;8.57;5.63;;;;;;;1.83;100.00;102556.59;10225503;28;20471;-72
2023/02/26 17:39:33;;;;;;;8.40;6.00;;;;;;;1.65;100.00;102564.53;10217446;28;20084;-72
2023/02/26 17:44:29;;;;;;;13.43;6.20;;;;;;;1.56;100.00;102573.91;10219169;28;20073;-73
2023/02/26 17:49:26;;;;;;;10.30;6.72;;;;;;;1.47;100.00;102574.13;10222942;28;20042;-72
2023/02/26 17:54:22;;;;;;;8.07;6.85;;;;;;;1.38;100.00;102580.78;10224227;28;20046;-72
2023/02/26 17:59:20;;;;;;;10.88;5.88;;;;;;;1.40;100.00;102576.00;10229718;28;20507;-72
2023/02/26 18:04:16;;;;;;;8.45;5.28;;;;;;;1.27;100.00;102587.63;10216986;28;20065;-72
2023/02/26 18:09:13;;;;;;;7.80;5.80;;;;;;;1.09;100.00;102598.25;10223571;28;20111;-72
2023/02/26 18:14:10;;;;;;;8.82;6.50;;;;;;;1.04;100.00;102598.88;10217706;28;20053;-72
2023/02/26 18:19:07;;;;;;;7.82;5.93;;;;;;;0.96;100.00;102599.06;10215580;28;20133;-72
2023/02/26 18:24:04;;;;;;;8.05;5.95;;;;;;;0.85;100.00;102602.38;10219258;28;20079;-72
2023/02/26 18:29:00;;;;;;;8.88;5.93;;;;;;;0.73;100.00;102604.03;10226542;28;20103;-73
2023/02/26 18:33:58;;;;;;;9.77;5.93;;;;;;;0.73;100.00;102612.09;10230729;28;20568;-72
2023/02/26 18:39:01;;;;;;;6.80;6.10;;;;;;;0.65;100.00;102614.97;10222489;28;20057;-71
2023/02/26 18:43:57;;;;;;;;;;;;;;;0.54;100.00;102619.13;10215069;28;20049;-72
2023/02/26 18:48:54;;;;;;;6.10;5.50;;;;;;;0.57;100.00;102619.53;10222598;28;19987;-72
2023/02/26 18:53:51;;;;;;;8.57;6.03;;;;;;;0.55;100.00;102621.59;10224166;28;20041;-72
2023/02/26 18:58:47;;;;;;;10.10;6.43;;;;;;;0.49;100.00;102618.88;10216529;28;20048;-72
2023/02/26 19:03:44;;;;;;;7.55;6.03;;;;;;;0.40;100.00;102621.78;10226120;28;20079;-72
2023/02/26 19:08:40;;;;;;;8.30;5.93;;;;;;;0.34;100.00;102621.75;10216216;28;20072;-72
2023/02/26 19:13:37;;;;;;;11.93;7.18;;;;;;;0.27;100.00;102615.53;10226190;28;20087;-72
2023/02/26 19:18:33;;;;;;;10.10;6.25;;;;;;;0.14;100.00;102627.06;10228832;28;20052;-72
2023/02/26 19:23:30;;;;;;;9.07;6.63;;;;;;;0.06;100.00;102617.31;10222314;28;20699;-71
2023/02/26 19:28:26;;;;;;;8.35;6.28;;;;;;;0.04;100.00;102621.22;10230997;28;20073;-72
2023/02/26 19:33:23;;;;;;;7.75;5.97;;;;;;;-0.05;100.00;102620.56;10225781;28;20321;-72
2023/02/26 19:38:19;;;;;;;12.43;7.15;;;;;;;-0.12;100.00;102627.78;10219768;28;20140;-71
2023/02/26 19:43:16;;;;;;;8.35;6.90;;;;;;;-0.12;100.00;102628.59;10231572;28;20128;-73
2023/02/26 19:48:13;;;;;;;9.70;6.85;;;;;;;-0.11;100.00;102632.13;10228230;28;20084;-73
2023/02/26 19:53:09;;;;;;;12.10;7.22;;;;;;;-0.11;100.00;102634.81;10224398;28;20056;-73
2023/02/26 19:58:05;;;;;;;17.02;7.88;;;;;;;-0.17;100.00;102636.44;10222675;28;20079;-71
2023/02/26 20:03:02;;;;;;;10.38;7.78;;;;;;;-0.22;100.00;102639.72;10218952;28;20046;-72
2023/02/26 20:07:58;;;;;;;11.45;7.43;;;;;;;-0.24;100.00;102644.47;10230971;28;20553;-73
2023/02/26 20:12:56;;;;;;;9.05;6.70;;;;;;;-0.22;100.00;102655.03;10221463;28;20124;-72
2023/02/26 20:17:53;;;;;;;11.80;7.65;;;;;;;-0.14;100.00;102656.72;10227293;28;20038;-71
2023/02/26 20:22:50;;;;;;;11.88;6.70;;;;;;;-0.22;100.00;102653.16;10226291;28;20104;-73
2023/02/26 20:27:46;;;;;;;9.32;6.47;;;;;;;-0.22;100.00;102655.84;10218614;28;20422;-71
2023/02/26 20:32:43;;;;;;;15.23;6.80;;;;;;;-0.20;100.00;102662.91;10227424;28;20038;-72
2023/02/26 20:37:40;;;;;;;11.40;6.32;;;;;;;-0.26;100.00;102665.34;10229363;28;20132;-71
2023/02/26 20:42:37;;;;;;;13.45;7.65;;;;;;;-0.25;100.00;102672.38;10229527;28;20486;-74
2023/02/26 20:47:34;;;;;;;6.82;5.32;;;;;;;-0.46;100.00;102684.03;10208561;28;20069;-71
2023/02/26 20:52:31;;;;;;;11.73;6.63;;;;;;;-0.57;100.00;102683.75;10227812;28;20054;-74
2023/02/26 20:57:28;;;;;;;8.02;5.75;;;;;;;-0.49;100.00;102686.25;10220618;28;20057;-74
2023/02/26 21:02:24;;;;;;;12.10;6.13;;;;;;;-0.58;100.00;102685.59;10223052;28;20057;-74
2023/02/26 21:07:21;;;;;;;8.18;5.82;;;;;;;-0.71;100.00;102689.00;10219722;28;20046;-73
2023/02/26 21:12:17;;;;;;;8.68;5.70;;;;;;;-0.73;100.00;102691.03;10220578;28;20063;-74
2023/02/26 21:17:14;;;;;;;12.25;7.28;;;;;;;-0.84;100.00;102696.94;10222045;28;20515;-74
2023/02/26 21:22:10;;;;;;;15.30;6.97;;;;;;;-0.85;100.00;102697.97;10221864;28;20132;-73
2023/02/26 21:27:07;;;;;;;10.13;6.85;;;;;;;-0.99;100.00;102707.75;10229867;28;20056;-74
2023/02/26 21:32:04;;;;;;;11.88;6.97;;;;;;;-0.97;100.00;102721.00;10226588;28;20057;-73
2023/02/26 21:37:02;;;;;;;9.48;6.43;;;;;;;-0.99;100.00;102707.75;10218223;28;20119;-73
2023/02/26 21:42:02;;;;;;;8.02;6.55;;;;;;;-1.00;100.00;102721.38;10225732;28;20061;-73
2023/02/26 21:47:00;;;;;;;14.40;6.57;;;;;;;-1.14;100.00;102729.31;10220290;28;20061;-73
2023/02/26 21:51:59;;;;;;;11.82;7.45;;;;;;;-1.15;100.00;102730.31;10224849;28;20053;-73
2023/02/26 21:56:56;;;;;;;15.20;6.68;;;;;;;-1.22;100.00;102740.16;10229856;28;20045;-73
2023/02/26 22:01:52;;;;;;;13.90;7.13;;;;;;;-1.20;100.00;102743.47;10218988;28;20094;-73
2023/02/26 22:06:49;;;;;;;10.77;6.50;;;;;;;-1.16;100.00;102744.78;10222924;28;20045;-73
2023/02/26 22:11:46;;;;;;;11.77;6.93;;;;;;;-1.23;100.00;102743.88;10226639;28;20100;-73
2023/02/26 22:16:42;;;;;;;11.43;7.40;;;;;;;-1.35;100.00;102737.31;10221648;28;20073;-73
2023/02/26 22:21:39;;;;;;;15.10;6.78;;;;;;;-1.38;100.00;102735.00;10227373;28;20392;-73
2023/02/26 22:26:35;;;;;;;8.57;6.68;;;;;;;-1.37;100.00;102731.28;10216474;28;20135;-74
2023/02/26 22:31:32;;;;;;;9.68;6.65;;;;;;;-1.34;100.00;102730.94;10214963;28;20042;-73
2023/02/26 22:36:30;;;;;;;13.18;9.20;;;;;;;-1.29;100.00;102739.25;10224406;28;20053;-73
2023/02/26 22:41:26;;;;;;;14.82;8.65;;;;;;;-1.30;100.00;102732.19;10217721;28;20050;-73
2023/02/26 22:46:24;;;;;;;15.25;8.38;;;;;;;-1.42;100.00;102734.53;10216158;28;20529;-73
2023/02/26 22:51:21;;;;;;;16.85;10.02;;;;;;;-1.48;100.00;102744.19;10219746;28;20046;-73
2023/02/26 22:56:17;;;;;;;17.02;8.68;;;;;;;-1.46;100.00;102744.00;10217119;28;20072;-73